createdAt,value
2019-02-08T00:02:18.674Z,0.56
2019-02-08T00:07:27.937Z,0.33
2019-02-08T00:12:37.098Z,0.33
2019-02-08T00:17:46.338Z,0.48
2019-02-08T00:22:55.502Z,0.31
2019-02-08T00:28:04.714Z,0.40
2019-02-08T00:33:13.895Z,0.74
2019-02-08T00:38:23.138Z,0.42
2019-02-08T00:43:32.390Z,0.62
2019-02-08T00:48:41.752Z,0.49
2019-02-08T00:53:50.990Z,0.48
2019-02-08T00:59:00.246Z,0.54
2019-02-08T01:04:09.426Z,0.66
2019-02-08T01:09:18.857Z,0.79
2019-02-08T01:14:27.702Z,0.76
2019-02-08T01:19:37.295Z,0.58
2019-02-08T01:24:46.613Z,0.72
2019-02-08T01:29:55.969Z,0.75
2019-02-08T01:35:05.190Z,0.38
2019-02-08T01:40:14.478Z,0.38
2019-02-08T01:45:23.835Z,0.59
2019-02-08T01:50:33.058Z,0.44
2019-02-08T01:55:42.307Z,0.49
2019-02-08T02:00:51.610Z,0.31
2019-02-08T02:06:00.789Z,0.42
2019-02-08T02:11:10.075Z,0.47
2019-02-08T02:16:19.329Z,0.49
2019-02-08T02:21:28.591Z,0.40
2019-02-08T02:26:37.827Z,0.42
2019-02-08T02:31:47.386Z,0.42
2019-02-08T02:36:56.555Z,0.30
2019-02-08T02:42:05.851Z,0.40
2019-02-08T02:47:15.031Z,0.41
2019-02-08T02:52:24.221Z,0.38
2019-02-08T02:57:33.512Z,0.43
2019-02-08T03:02:42.795Z,0.31
2019-02-08T03:07:52.130Z,0.49
2019-02-08T03:13:01.500Z,0.28
2019-02-08T03:18:10.730Z,0.33
2019-02-08T03:23:19.943Z,0.40
2019-02-08T03:28:29.220Z,0.30
2019-02-08T03:33:38.601Z,0.32
2019-02-08T03:38:47.855Z,0.37
2019-02-08T03:43:57.032Z,0.49
2019-02-08T03:49:06.255Z,0.43
2019-02-08T03:54:21.027Z,0.45
2019-02-08T03:59:24.238Z,0.30
2019-02-08T04:04:33.517Z,0.66
2019-02-08T04:09:42.818Z,0.23
2019-02-08T04:14:52.239Z,0.27
2019-02-08T04:20:01.431Z,0.33
2019-02-08T04:25:10.824Z,0.34
2019-02-08T04:30:20.026Z,0.27
2019-02-08T04:35:29.331Z,0.36
2019-02-08T04:40:38.543Z,0.40
2019-02-08T04:45:47.935Z,0.52
2019-02-08T04:50:57.110Z,0.56
2019-02-08T04:56:06.544Z,0.40
2019-02-08T05:01:15.723Z,0.67
2019-02-08T05:06:24.966Z,0.50
2019-02-08T05:11:34.299Z,0.36
2019-02-08T05:16:43.573Z,0.55
2019-02-08T05:21:52.759Z,0.31
2019-02-08T05:27:02.154Z,0.28
2019-02-08T05:32:11.286Z,0.42
2019-02-08T05:37:20.895Z,0.27
2019-02-08T05:42:30.176Z,0.37
2019-02-08T05:47:39.458Z,0.39
2019-02-08T05:52:48.840Z,0.40
2019-02-08T05:57:58.089Z,0.63
2019-02-08T06:03:07.406Z,0.57
2019-02-08T06:08:16.675Z,0.62
2019-02-08T06:13:25.929Z,0.44
2019-02-08T06:18:35.506Z,0.37
2019-02-08T06:23:44.683Z,0.69
2019-02-08T06:28:53.971Z,0.39
2019-02-08T06:34:03.183Z,0.27
2019-02-08T06:39:12.663Z,0.35
2019-02-08T06:44:21.951Z,0.42
2019-02-08T06:49:31.311Z,0.34
2019-02-08T06:54:40.750Z,0.72
2019-02-08T06:59:50.100Z,0.90
2019-02-08T07:04:59.534Z,0.47
2019-02-08T07:10:08.926Z,0.39
2019-02-08T07:15:18.291Z,0.60
2019-02-08T07:20:27.651Z,0.55
2019-02-08T07:25:37.137Z,0.25
2019-02-08T07:30:46.443Z,0.44
2019-02-08T07:35:55.746Z,0.40
2019-02-08T07:41:05.226Z,0.36
2019-02-08T07:46:14.594Z,0.53
2019-02-08T07:51:23.996Z,0.37
2019-02-08T07:56:33.387Z,0.46
2019-02-08T08:01:42.778Z,0.27
2019-02-08T08:06:52.114Z,0.37
2019-02-08T08:12:01.343Z,0.37
2019-02-08T08:17:10.614Z,0.67
2019-02-08T08:22:19.938Z,1.01
2019-02-08T08:27:29.205Z,0.79
2019-02-08T08:32:38.579Z,0.66
2019-02-08T08:37:47.813Z,0.82
2019-02-08T08:42:57.172Z,0.59
2019-02-08T08:48:06.528Z,1.00
2019-02-08T08:53:15.976Z,0.72
2019-02-08T08:58:25.237Z,0.62
2019-02-08T09:03:34.679Z,0.48
2019-02-08T09:08:43.914Z,0.38
2019-02-08T09:13:53.232Z,0.46
2019-02-08T09:19:02.407Z,0.31
2019-02-08T09:24:11.673Z,0.52
2019-02-08T09:29:20.900Z,0.57
2019-02-08T09:34:30.277Z,0.31
2019-02-08T09:39:39.642Z,0.35
2019-02-08T09:44:49.061Z,0.42
2019-02-08T09:49:58.473Z,0.39
2019-02-08T09:55:07.874Z,0.44
2019-02-08T10:00:17.111Z,0.40
2019-02-08T10:05:26.430Z,0.34
2019-02-08T10:10:35.861Z,0.34
2019-02-08T10:15:45.471Z,0.36
2019-02-08T10:20:54.824Z,0.32
2019-02-08T10:26:05.516Z,0.29
2019-02-08T10:31:13.205Z,0.38
2019-02-08T10:36:22.661Z,0.32
2019-02-08T10:41:31.985Z,0.31
2019-02-08T10:46:41.374Z,0.33
2019-02-08T10:51:50.707Z,0.69
2019-02-08T10:57:00.354Z,0.47
2019-02-08T11:02:09.657Z,0.41
2019-02-08T11:07:19.034Z,0.37
2019-02-08T11:12:28.151Z,0.22
2019-02-08T11:17:37.596Z,0.40
2019-02-08T11:22:47.051Z,0.32
2019-02-08T11:27:56.369Z,0.19
2019-02-08T11:33:05.772Z,0.24
2019-02-08T11:38:15.266Z,0.30
2019-02-08T11:43:24.475Z,0.21
2019-02-08T11:48:33.911Z,0.21
2019-02-08T11:53:43.259Z,0.26
2019-02-08T11:58:52.598Z,0.12
2019-02-08T12:04:01.870Z,0.24
2019-02-08T12:09:11.233Z,0.10
2019-02-08T12:14:20.530Z,0.25
2019-02-08T12:19:30.029Z,0.27
2019-02-08T12:24:39.240Z,0.14
2019-02-08T12:29:48.525Z,0.45
2019-02-08T12:34:57.786Z,0.29
2019-02-08T12:40:07.206Z,0.31
2019-02-08T12:45:16.599Z,0.12
2019-02-08T12:50:25.916Z,0.52
2019-02-08T12:55:35.200Z,0.23
2019-02-08T13:00:44.564Z,0.12
2019-02-08T13:05:53.904Z,0.18
2019-02-08T13:11:03.309Z,0.27
2019-02-08T13:16:12.707Z,0.11
2019-02-08T13:21:22.067Z,0.17
2019-02-08T13:26:31.473Z,0.16
2019-02-08T13:31:40.814Z,0.12
2019-02-08T13:36:50.101Z,0.19
2019-02-08T13:41:59.344Z,0.17
2019-02-08T13:47:08.539Z,0.16
2019-02-08T13:52:17.766Z,0.17
2019-02-08T13:57:26.990Z,0.22
2019-02-08T14:02:36.361Z,0.14
2019-02-08T14:07:45.569Z,0.18
2019-02-08T14:12:54.838Z,0.22
2019-02-08T14:18:04.053Z,0.23
2019-02-08T14:23:13.582Z,0.19
2019-02-08T14:28:22.823Z,0.16
2019-02-08T14:33:32.204Z,0.17
2019-02-08T14:38:41.474Z,0.19
2019-02-08T14:43:50.827Z,0.27
2019-02-08T14:49:00.126Z,0.29
2019-02-08T14:54:09.474Z,0.25
2019-02-08T14:59:18.773Z,0.18
2019-02-08T15:04:28.012Z,0.30
2019-02-08T15:09:37.442Z,0.14
2019-02-08T15:14:46.779Z,0.33
2019-02-08T15:19:57.856Z,0.24
2019-02-08T15:25:05.140Z,0.21
2019-02-08T15:30:14.442Z,0.21
2019-02-08T15:35:23.946Z,0.52
2019-02-08T15:40:33.392Z,0.48
2019-02-08T15:45:42.640Z,0.23
2019-02-08T15:50:52.134Z,0.21
2019-02-08T15:56:01.343Z,0.37
2019-02-08T16:01:10.799Z,0.16
2019-02-08T16:06:20.162Z,0.22
2019-02-08T16:11:29.558Z,0.39
2019-02-08T16:16:38.890Z,0.58
2019-02-08T16:21:48.482Z,0.19
2019-02-08T16:26:57.713Z,0.41
2019-02-08T16:32:07.363Z,0.43
2019-02-08T16:37:21.536Z,0.33
2019-02-08T16:42:20.639Z,0.37
2019-02-08T16:47:29.872Z,0.29
2019-02-08T16:52:39.339Z,0.26
2019-02-08T16:57:48.580Z,0.17
2019-02-08T17:02:57.890Z,0.17
2019-02-08T17:08:07.293Z,0.20
2019-02-08T17:13:16.623Z,0.28
2019-02-08T17:18:26.112Z,0.19
2019-02-08T17:23:35.564Z,0.30
2019-02-08T17:28:44.770Z,0.39
2019-02-08T17:33:54.160Z,0.41
2019-02-08T17:39:03.365Z,0.54
2019-02-08T17:44:12.664Z,0.46
2019-02-08T17:49:21.919Z,0.47
2019-02-08T17:54:31.220Z,0.61
2019-02-08T17:59:41.286Z,0.28
2019-02-08T18:04:43.160Z,0.26
2019-02-08T18:09:42.297Z,0.47
2019-02-08T18:14:51.593Z,0.49
2019-02-08T18:20:01.023Z,0.51
2019-02-08T18:25:10.318Z,0.49
2019-02-08T18:30:19.652Z,0.30
2019-02-08T18:35:28.882Z,0.94
2019-02-08T18:40:38.166Z,0.77
2019-02-08T18:45:47.528Z,0.49
2019-02-08T18:50:57.020Z,0.60
2019-02-08T18:56:06.702Z,0.67
2019-02-08T19:01:16.121Z,0.53
2019-02-08T19:06:25.683Z,0.66
2019-02-08T19:11:35.230Z,0.56
2019-02-08T19:16:44.821Z,0.78
2019-02-08T19:21:54.263Z,0.44
2019-02-08T19:27:04.070Z,0.57
2019-02-08T19:32:13.350Z,0.60
2019-02-08T19:37:22.671Z,0.66
2019-02-08T19:42:32.093Z,0.43
2019-02-08T19:47:41.579Z,0.52
2019-02-08T19:52:51.651Z,0.67
2019-02-08T19:57:51.718Z,0.48
2019-02-08T20:02:51.425Z,0.64
2019-02-08T20:08:01.542Z,0.81
2019-02-08T20:13:01.292Z,0.58
2019-02-08T20:18:10.978Z,0.54
2019-02-08T20:23:20.570Z,0.62
2019-02-08T20:28:29.807Z,0.48
2019-02-08T20:33:39.008Z,0.53
2019-02-08T20:38:48.376Z,0.45
2019-02-08T20:43:57.839Z,0.68
2019-02-08T20:49:07.288Z,0.62
2019-02-08T20:54:16.643Z,0.45
2019-02-08T20:59:26.037Z,0.59
2019-02-08T21:04:35.514Z,0.60
2019-02-08T21:09:44.662Z,0.52
2019-02-08T21:14:54.005Z,0.76
2019-02-08T21:20:03.278Z,0.98
2019-02-08T21:25:12.458Z,0.79
2019-02-08T21:30:21.654Z,0.65
2019-02-08T21:35:31.137Z,0.77
2019-02-08T21:40:41.322Z,0.77
2019-02-08T21:45:41.573Z,0.52
2019-02-08T21:50:41.267Z,0.72
2019-02-08T21:55:51.653Z,1.05
2019-02-08T22:00:51.501Z,0.83
2019-02-08T22:06:00.747Z,0.56
2019-02-08T22:11:09.948Z,0.64
2019-02-08T22:16:19.235Z,0.61
2019-02-08T22:21:28.484Z,0.53
2019-02-08T22:26:37.742Z,0.81
2019-02-08T22:31:46.985Z,0.59
2019-02-08T22:36:56.263Z,0.94
2019-02-08T22:42:05.419Z,0.59
2019-02-08T22:47:14.741Z,0.72
2019-02-08T22:52:25.565Z,0.58
2019-02-08T22:57:28.267Z,0.74
2019-02-08T23:02:27.550Z,0.55
2019-02-08T23:07:36.871Z,0.50
2019-02-08T23:12:46.030Z,0.84
2019-02-08T23:17:55.215Z,0.36
2019-02-08T23:23:04.361Z,0.46
2019-02-08T23:28:13.705Z,0.47
2019-02-08T23:33:22.965Z,0.65
2019-02-08T23:38:32.308Z,0.65
2019-02-08T23:43:41.471Z,0.63
2019-02-08T23:48:50.658Z,0.61
2019-02-08T23:53:59.835Z,0.63
2019-02-08T23:59:09.135Z,0.86
